createdAt,value
2024-05-09T00:01:08.518Z,74.38
2024-05-09T00:03:44.523Z,78.22
2024-05-09T00:06:16.414Z,80.45
2024-05-09T00:08:46.456Z,78.13
2024-05-09T00:11:18.434Z,77.15
2024-05-09T00:13:48.199Z,76.17
2024-05-09T00:16:20.336Z,76.40
2024-05-09T00:18:53.261Z,73.35
2024-05-09T00:21:25.334Z,72.27
2024-05-09T00:23:55.136Z,77.88
2024-05-09T00:26:27.502Z,80.25
2024-05-09T00:28:57.233Z,83.83
2024-05-09T00:31:29.343Z,90.95
2024-05-09T00:34:02.321Z,83.90
2024-05-09T00:36:34.360Z,81.33
2024-05-09T00:39:04.284Z,84.77
2024-05-09T00:41:36.435Z,89.47
2024-05-09T00:44:06.217Z,90.70
2024-05-09T00:46:38.396Z,87.70
2024-05-09T00:49:12.315Z,90.68
2024-05-09T00:51:44.751Z,84.90
2024-05-09T00:54:15.388Z,87.40
2024-05-09T00:56:47.189Z,94.03
2024-05-09T00:59:17.466Z,95.25
2024-05-09T01:01:49.189Z,86.95
2024-05-09T01:04:22.232Z,94.05
2024-05-09T01:06:54.402Z,98.50
2024-05-09T01:09:24.242Z,110.93
2024-05-09T01:11:56.536Z,96.70
2024-05-09T01:14:26.239Z,104.97
2024-05-09T01:16:57.202Z,96.27
2024-05-09T01:19:32.781Z,98.80
2024-05-09T01:22:04.560Z,106.78
2024-05-09T01:24:37.441Z,105.63
2024-05-09T01:27:08.218Z,106.97
2024-05-09T01:29:39.426Z,110.28
2024-05-09T01:32:10.362Z,103.97
2024-05-09T01:34:41.438Z,108.90
2024-05-09T01:37:12.253Z,110.25
2024-05-09T01:39:45.307Z,110.68
2024-05-09T01:42:17.449Z,113.75
2024-05-09T01:44:47.633Z,107.05
2024-05-09T01:47:18.556Z,109.60
2024-05-09T01:49:48.274Z,110.88
2024-05-09T01:52:20.478Z,105.18
2024-05-09T01:54:53.269Z,102.85
2024-05-09T01:57:25.488Z,98.80
2024-05-09T01:59:56.265Z,100.30
2024-05-09T02:02:28.573Z,99.97
2024-05-09T02:04:58.381Z,90.05
2024-05-09T02:07:30.551Z,97.10
2024-05-09T02:10:06.582Z,103.50
2024-05-09T02:12:40.486Z,113.18
2024-05-09T02:15:11.307Z,111.38
2024-05-09T02:17:43.695Z,108.57
2024-05-09T02:20:22.549Z,115.93
2024-05-09T02:23:00.612Z,110.18
2024-05-09T02:25:33.341Z,111.07
2024-05-09T02:28:05.539Z,115.15
2024-05-09T02:30:40.295Z,113.15
2024-05-09T02:33:12.658Z,110.73
2024-05-09T02:35:44.552Z,113.88
2024-05-09T02:38:13.615Z,116.20
2024-05-09T02:40:46.552Z,115.27
2024-05-09T02:43:15.048Z,118.35
2024-05-09T02:45:45.549Z,118.70
2024-05-09T02:48:14.447Z,118.22
2024-05-09T02:50:44.936Z,127.07
2024-05-09T02:53:13.861Z,115.13
2024-05-09T02:55:47.625Z,123.88
2024-05-09T02:58:16.110Z,128.73
2024-05-09T03:00:46.646Z,127.80
2024-05-09T03:03:15.848Z,129.18
2024-05-09T03:05:46.994Z,126.50
2024-05-09T03:08:15.374Z,128.02
2024-05-09T03:10:48.588Z,124.75
2024-05-09T03:13:17.043Z,133.60
2024-05-09T03:15:47.613Z,125.25
2024-05-09T03:18:16.234Z,132.02
2024-05-09T03:20:46.601Z,133.77
2024-05-09T03:23:14.755Z,96.90
2024-05-09T03:25:47.592Z,81.75
2024-05-09T03:28:15.735Z,91.40
2024-05-09T03:30:46.607Z,89.35
2024-05-09T03:33:17.909Z,104.00
2024-05-09T03:35:51.608Z,124.38
2024-05-09T03:38:22.516Z,113.97
2024-05-09T03:40:56.638Z,93.30
2024-05-09T03:43:27.396Z,97.47
2024-05-09T03:45:58.608Z,98.65
2024-05-09T03:48:26.929Z,132.97
2024-05-09T03:50:57.646Z,143.13
2024-05-09T03:53:26.861Z,148.40
2024-05-09T03:56:00.779Z,140.32
2024-05-09T03:58:28.746Z,151.13
2024-05-09T04:00:59.793Z,137.75
2024-05-09T04:03:28.009Z,136.77
2024-05-09T04:05:58.618Z,160.18
2024-05-09T04:08:26.816Z,149.77
2024-05-09T04:10:59.678Z,147.13
2024-05-09T04:13:28.041Z,135.38
2024-05-09T04:15:58.662Z,136.15
2024-05-09T04:18:26.323Z,145.85
2024-05-09T04:20:56.800Z,144.68
2024-05-09T04:23:25.776Z,147.60
2024-05-09T04:25:55.592Z,164.65
2024-05-09T04:28:27.675Z,174.55
2024-05-09T04:30:57.446Z,182.90
2024-05-09T04:33:27.811Z,157.27
2024-05-09T04:35:57.484Z,184.33
2024-05-09T04:38:26.695Z,166.57
2024-05-09T04:40:56.512Z,178.25
2024-05-09T04:43:28.681Z,168.93
2024-05-09T04:45:58.481Z,143.10
2024-05-09T04:48:27.848Z,168.70
2024-05-09T04:50:58.509Z,167.63
2024-05-09T04:53:27.773Z,122.70
2024-05-09T04:55:57.546Z,159.80
2024-05-09T04:58:29.697Z,168.80
2024-05-09T05:00:59.551Z,157.45
2024-05-09T05:03:27.942Z,117.05
2024-05-09T05:05:58.046Z,128.93
2024-05-09T05:08:26.777Z,121.70
2024-05-09T05:10:57.058Z,118.38
2024-05-09T05:13:25.721Z,119.97
2024-05-09T05:15:58.801Z,108.60
2024-05-09T05:18:28.876Z,98.07
2024-05-09T05:20:59.802Z,98.07
2024-05-09T05:23:30.788Z,84.60
2024-05-09T05:25:58.274Z,83.75
2024-05-09T05:28:28.731Z,84.35
2024-05-09T05:30:58.883Z,79.65
2024-05-09T05:33:30.989Z,74.60
2024-05-09T05:35:58.137Z,73.70
2024-05-09T05:38:28.893Z,70.10
2024-05-09T05:40:56.958Z,66.25
2024-05-09T05:43:27.590Z,64.78
2024-05-09T05:45:59.776Z,66.85
2024-05-09T05:48:29.678Z,68.13
2024-05-09T05:51:00.424Z,61.75
2024-05-09T05:53:31.592Z,68.00
2024-05-09T05:56:00.809Z,65.03
2024-05-09T05:58:30.610Z,59.97
2024-05-09T06:01:02.828Z,66.63
2024-05-09T06:03:32.792Z,56.65
2024-05-09T06:06:04.015Z,64.37
2024-05-09T06:08:34.619Z,56.80
2024-05-09T06:11:03.998Z,58.10
2024-05-09T06:13:34.581Z,62.40
2024-05-09T06:16:06.780Z,68.60
2024-05-09T06:18:36.722Z,60.50
2024-05-09T06:21:05.852Z,59.97
2024-05-09T06:23:36.788Z,54.67
2024-05-09T06:26:05.850Z,54.17
2024-05-09T06:28:35.570Z,49.78
2024-05-09T06:31:07.831Z,50.00
2024-05-09T06:33:37.767Z,56.03
2024-05-09T06:36:06.819Z,51.47
2024-05-09T06:38:37.959Z,48.45
2024-05-09T06:41:06.902Z,49.15
2024-05-09T06:43:37.393Z,48.63
2024-05-09T06:46:08.845Z,46.13
2024-05-09T06:48:38.734Z,48.17
2024-05-09T06:51:07.944Z,40.00
2024-05-09T06:53:37.742Z,41.72
2024-05-09T06:56:07.894Z,43.33
2024-05-09T06:58:37.673Z,45.25
2024-05-09T07:01:09.882Z,44.47
2024-05-09T07:03:39.761Z,48.80
2024-05-09T07:06:08.375Z,47.33
2024-05-09T07:08:38.955Z,47.08
2024-05-09T07:11:07.483Z,40.03
2024-05-09T07:13:37.946Z,41.22
2024-05-09T07:16:09.193Z,37.40
2024-05-09T07:18:40.056Z,37.97
2024-05-09T07:21:08.982Z,36.88
2024-05-09T07:23:38.808Z,35.88
2024-05-09T07:26:07.912Z,39.90
2024-05-09T07:28:37.714Z,30.02
2024-05-09T07:31:09.918Z,27.73
2024-05-09T07:33:39.828Z,29.60
2024-05-09T07:36:08.972Z,30.83
2024-05-09T07:38:38.826Z,30.85
2024-05-09T07:41:07.982Z,24.63
2024-05-09T07:43:37.700Z,24.15
2024-05-09T07:47:13.937Z,28.10
2024-05-09T07:50:35.874Z,27.95
2024-05-09T07:53:20.427Z,27.50
2024-05-09T07:54:39.796Z,28.25
2024-05-09T07:57:08.969Z,28.67
2024-05-09T07:59:38.729Z,25.88
2024-05-09T08:02:10.090Z,24.02
2024-05-09T08:04:40.171Z,21.90
2024-05-09T08:07:09.087Z,20.67
2024-05-09T08:09:39.815Z,21.20
2024-05-09T08:12:09.959Z,22.80
2024-05-09T08:14:41.107Z,25.98
2024-05-09T08:17:12.976Z,19.13
2024-05-09T08:19:43.348Z,18.77
2024-05-09T08:22:14.081Z,25.33
2024-05-09T08:24:42.168Z,20.00
2024-05-09T08:27:13.027Z,14.95
2024-05-09T08:29:40.568Z,17.55
2024-05-09T08:32:15.097Z,21.42
2024-05-09T08:34:44.670Z,17.73
2024-05-09T08:37:22.131Z,16.02
2024-05-09T08:39:51.523Z,18.77
2024-05-09T08:42:22.019Z,17.95
2024-05-09T08:44:50.134Z,21.20
2024-05-09T08:47:24.126Z,21.00
2024-05-09T08:49:58.230Z,18.17
2024-05-09T08:52:30.010Z,18.27
2024-05-09T08:54:57.179Z,17.40
2024-05-09T08:57:30.068Z,16.40
2024-05-09T09:00:04.821Z,16.75
2024-05-09T09:02:41.161Z,16.27
2024-05-09T09:05:11.359Z,15.25
2024-05-09T09:07:42.555Z,16.50
2024-05-09T09:10:17.682Z,17.10
2024-05-09T09:12:58.745Z,19.70
2024-05-09T09:15:27.180Z,18.90
2024-05-09T09:18:02.312Z,18.42
2024-05-09T09:20:36.420Z,16.75
2024-05-09T09:23:09.054Z,17.05
2024-05-09T09:25:40.287Z,18.83
2024-05-09T09:28:13.104Z,16.02
2024-05-09T09:30:41.322Z,15.73
2024-05-09T09:33:16.238Z,20.02
2024-05-09T09:35:44.212Z,16.40
2024-05-09T09:38:21.084Z,18.08
2024-05-09T09:40:50.566Z,14.57
2024-05-09T09:43:23.085Z,17.02
2024-05-09T09:45:53.744Z,16.85
2024-05-09T09:48:28.627Z,17.33
2024-05-09T09:50:58.095Z,15.43
2024-05-09T09:53:30.571Z,16.58
2024-05-09T09:56:00.107Z,18.95
2024-05-09T09:58:31.380Z,17.58
2024-05-09T10:01:00.263Z,16.20
2024-05-09T10:03:33.966Z,21.70
2024-05-09T10:06:04.145Z,16.23
2024-05-09T10:08:34.352Z,18.77
2024-05-09T10:11:05.212Z,18.95
2024-05-09T10:13:36.424Z,19.98
2024-05-09T10:16:09.243Z,16.23
2024-05-09T10:18:42.981Z,19.53
2024-05-09T10:21:18.147Z,18.33
2024-05-09T10:23:59.703Z,18.23
2024-05-09T10:26:35.175Z,22.20
2024-05-09T10:29:13.957Z,21.45
2024-05-09T10:31:44.286Z,22.42
2024-05-09T10:34:22.809Z,18.95
2024-05-09T10:36:56.273Z,17.97
2024-05-09T10:39:27.951Z,19.50
2024-05-09T10:41:57.163Z,17.80
2024-05-09T10:44:27.401Z,19.33
2024-05-09T10:46:56.318Z,21.98
2024-05-09T10:49:29.119Z,20.42
2024-05-09T10:51:58.311Z,19.17
2024-05-09T10:54:38.145Z,21.70
2024-05-09T10:57:08.182Z,17.25
2024-05-09T10:59:39.688Z,20.23
2024-05-09T11:02:08.506Z,18.10
2024-05-09T11:04:42.144Z,19.90
2024-05-09T11:07:15.291Z,17.70
2024-05-09T11:09:45.974Z,17.45
2024-05-09T11:12:15.294Z,18.00
2024-05-09T11:14:55.488Z,17.37
2024-05-09T11:17:25.356Z,17.17
2024-05-09T11:19:58.005Z,20.90
2024-05-09T11:22:33.219Z,16.88
2024-05-09T11:25:04.430Z,18.70
2024-05-09T11:27:32.387Z,17.98
2024-05-09T11:30:04.326Z,15.20
2024-05-09T11:32:32.804Z,18.15
2024-05-09T11:35:07.222Z,17.63
2024-05-09T11:37:37.156Z,17.48
2024-05-09T11:40:13.909Z,17.33
2024-05-09T11:42:52.460Z,17.43
2024-05-09T11:45:23.250Z,23.58
2024-05-09T11:47:51.971Z,16.40
2024-05-09T11:50:29.988Z,18.52
2024-05-09T11:53:02.842Z,15.87
2024-05-09T11:55:36.362Z,18.42
2024-05-09T11:58:05.498Z,18.58
2024-05-09T12:00:37.543Z,15.90
2024-05-09T12:03:06.549Z,15.40
2024-05-09T12:05:39.537Z,13.95
2024-05-09T12:08:08.410Z,16.27
2024-05-09T12:10:39.485Z,16.83
2024-05-09T12:13:07.870Z,16.67
2024-05-09T12:15:39.453Z,15.73
2024-05-09T12:18:08.316Z,14.98
2024-05-09T12:20:41.323Z,14.70
2024-05-09T12:23:10.491Z,17.77
2024-05-09T12:25:41.295Z,17.23
2024-05-09T12:28:09.550Z,14.27
2024-05-09T12:30:41.535Z,16.10
2024-05-09T12:33:12.485Z,18.75
2024-05-09T12:35:48.172Z,14.95
2024-05-09T12:38:18.454Z,16.75
2024-05-09T12:40:49.386Z,20.60
2024-05-09T12:43:17.542Z,16.75
2024-05-09T12:45:48.464Z,84.75
2024-05-09T12:48:16.737Z,78.10
2024-05-09T12:50:49.588Z,47.53
2024-05-09T12:53:17.489Z,23.60
2024-05-09T12:55:56.741Z,68.72
2024-05-09T12:58:28.490Z,38.45
2024-05-09T13:00:59.519Z,74.78
2024-05-09T13:03:27.528Z,93.85
2024-05-09T13:06:01.346Z,18.27
2024-05-09T13:08:29.524Z,24.67
2024-05-09T13:10:59.755Z,14.00
2024-05-09T13:13:29.355Z,14.63
2024-05-09T13:15:59.680Z,12.57
2024-05-09T13:18:27.777Z,12.20
2024-05-09T13:21:00.381Z,14.30
2024-05-09T13:23:28.518Z,14.27
2024-05-09T13:25:59.452Z,12.65
2024-05-09T13:28:27.693Z,18.40
2024-05-09T13:30:58.469Z,26.27
2024-05-09T13:33:26.623Z,12.35
2024-05-09T13:35:57.485Z,11.00
2024-05-09T13:38:28.768Z,16.48
2024-05-09T13:40:59.549Z,13.70
2024-05-09T13:43:27.695Z,16.90
2024-05-09T13:45:57.890Z,11.37
2024-05-09T13:48:26.534Z,14.05
2024-05-09T13:50:56.599Z,31.98
2024-05-09T13:53:25.444Z,12.13
2024-05-09T13:55:58.207Z,24.58
2024-05-09T13:58:27.455Z,16.40
2024-05-09T14:00:58.322Z,12.70
2024-05-09T14:03:30.710Z,13.82
2024-05-09T14:06:00.682Z,14.13
2024-05-09T14:08:30.462Z,11.68
2024-05-09T14:11:03.345Z,15.55
2024-05-09T14:13:32.461Z,12.57
2024-05-09T14:16:02.687Z,15.00
2024-05-09T14:18:30.567Z,13.90
2024-05-09T14:21:00.555Z,12.18
2024-05-09T14:23:29.479Z,10.80
2024-05-09T14:25:59.617Z,11.38
2024-05-09T14:28:31.557Z,8.57
2024-05-09T14:31:01.641Z,9.95
2024-05-09T14:33:31.670Z,14.23
2024-05-09T14:36:01.688Z,13.05
2024-05-09T14:38:30.503Z,12.77
2024-05-09T14:41:00.857Z,8.88
2024-05-09T14:43:32.613Z,9.40
2024-05-09T14:46:02.740Z,11.82
2024-05-09T14:48:30.768Z,12.35
2024-05-09T14:51:00.519Z,10.93
2024-05-09T14:53:28.976Z,13.77
2024-05-09T14:55:59.558Z,12.40
2024-05-09T14:58:30.786Z,10.43
2024-05-09T15:01:00.711Z,13.40
2024-05-09T15:03:29.085Z,13.13
2024-05-09T15:05:59.600Z,10.95
2024-05-09T15:08:28.110Z,11.52
2024-05-09T15:10:58.546Z,11.93
2024-05-09T15:13:27.729Z,11.13
2024-05-09T15:16:00.402Z,14.30
2024-05-09T15:18:29.770Z,9.40
2024-05-09T15:20:59.687Z,13.18
2024-05-09T15:23:28.048Z,11.27
2024-05-09T15:25:58.586Z,11.52
2024-05-09T15:28:27.171Z,12.75
2024-05-09T15:30:57.405Z,11.90
2024-05-09T15:33:29.725Z,11.23
2024-05-09T15:35:59.365Z,9.27
2024-05-09T15:38:28.606Z,9.40
2024-05-09T15:40:58.406Z,13.00
2024-05-09T15:43:28.771Z,10.53
2024-05-09T15:45:58.396Z,14.70
2024-05-09T15:48:29.740Z,13.40
2024-05-09T15:50:59.731Z,9.80
2024-05-09T15:53:29.119Z,10.48
2024-05-09T15:55:59.378Z,8.77
2024-05-09T15:58:27.723Z,13.98
2024-05-09T16:00:57.898Z,13.48
2024-05-09T16:03:26.735Z,10.35
2024-05-09T16:05:59.513Z,10.02
2024-05-09T16:08:27.764Z,14.20
2024-05-09T16:10:58.835Z,13.05
2024-05-09T16:13:26.871Z,19.02
2024-05-09T16:15:56.780Z,10.03
2024-05-09T16:18:25.728Z,37.13
2024-05-09T16:21:00.070Z,17.40
2024-05-09T16:23:31.682Z,10.15
2024-05-09T16:26:01.822Z,11.07
2024-05-09T16:28:30.805Z,33.13
2024-05-09T16:31:01.545Z,10.90
2024-05-09T16:33:30.960Z,34.95
2024-05-09T16:36:00.893Z,10.48
2024-05-09T16:38:31.688Z,8.15
2024-05-09T16:41:01.518Z,10.75
2024-05-09T16:43:30.690Z,9.73
2024-05-09T16:46:00.504Z,12.60
2024-05-09T16:48:30.773Z,22.77
2024-05-09T16:51:00.482Z,22.40
2024-05-09T16:53:32.698Z,41.17
2024-05-09T16:56:02.500Z,39.08
2024-05-09T16:58:31.732Z,52.10
2024-05-09T17:01:01.629Z,44.70
2024-05-09T17:03:30.252Z,47.70
2024-05-09T17:06:03.751Z,19.08
2024-05-09T17:08:36.947Z,12.80
2024-05-09T17:11:07.797Z,14.45
2024-05-09T17:13:39.349Z,16.33
2024-05-09T17:16:11.762Z,11.98
2024-05-09T17:18:40.344Z,17.63
2024-05-09T17:21:11.736Z,20.95
2024-05-09T17:23:42.935Z,21.15
2024-05-09T17:26:13.763Z,36.63
2024-05-09T17:28:41.908Z,43.00
2024-05-09T17:31:12.794Z,10.07
2024-05-09T17:33:42.473Z,29.17
2024-05-09T17:36:13.769Z,45.83
2024-05-09T17:38:45.279Z,47.93
2024-05-09T17:41:15.790Z,10.55
2024-05-09T17:43:43.905Z,11.80
2024-05-09T17:46:14.800Z,9.93
2024-05-09T17:48:43.320Z,7.60
2024-05-09T17:51:13.767Z,9.73
2024-05-09T17:53:44.922Z,8.77
2024-05-09T17:56:14.803Z,9.20
2024-05-09T17:58:43.422Z,9.32
2024-05-09T18:01:14.955Z,8.45
2024-05-09T18:03:43.729Z,9.13
2024-05-09T18:06:13.797Z,9.20
2024-05-09T18:08:42.156Z,8.80
2024-05-09T18:11:14.927Z,11.27
2024-05-09T18:13:43.129Z,8.00
2024-05-09T18:16:13.948Z,10.50
2024-05-09T18:18:42.499Z,8.27
2024-05-09T18:21:12.873Z,9.30
2024-05-09T18:23:41.678Z,7.80
2024-05-09T18:26:14.839Z,10.82
2024-05-09T18:28:43.418Z,11.25
2024-05-09T18:31:13.870Z,8.52
2024-05-09T18:33:42.472Z,7.50
2024-05-09T18:36:13.854Z,8.65
2024-05-09T18:38:44.955Z,9.50
2024-05-09T18:41:15.883Z,11.52
2024-05-09T18:43:50.364Z,9.88
2024-05-09T18:46:18.942Z,11.10
2024-05-09T18:48:50.142Z,10.48
2024-05-09T18:51:18.460Z,9.45
2024-05-09T18:53:49.885Z,9.02
2024-05-09T18:56:20.144Z,9.77
2024-05-09T18:58:51.063Z,10.13
2024-05-09T19:01:18.977Z,11.60
2024-05-09T19:03:50.823Z,10.95
2024-05-09T19:06:22.773Z,10.85
2024-05-09T19:08:55.105Z,11.00
2024-05-09T19:11:25.060Z,15.20
2024-05-09T19:13:57.003Z,12.07
2024-05-09T19:16:24.194Z,12.82
2024-05-09T19:18:57.462Z,17.40
2024-05-09T19:21:25.050Z,15.27
2024-05-09T19:23:55.917Z,12.57
2024-05-09T19:26:26.308Z,14.90
2024-05-09T19:28:56.984Z,15.27
2024-05-09T19:31:27.251Z,15.85
2024-05-09T19:33:55.111Z,13.40
2024-05-09T19:36:25.949Z,16.98
2024-05-09T19:38:53.604Z,18.42
2024-05-09T19:41:23.889Z,17.25
2024-05-09T19:43:55.938Z,16.20
2024-05-09T19:46:26.228Z,17.57
2024-05-09T19:48:55.197Z,16.52
2024-05-09T19:51:25.754Z,15.00
2024-05-09T19:53:55.979Z,16.23
2024-05-09T19:56:26.311Z,17.93
2024-05-09T19:58:57.982Z,16.73
2024-05-09T20:01:27.893Z,15.35
2024-05-09T20:03:59.214Z,17.58
2024-05-09T20:06:30.714Z,17.10
2024-05-09T20:08:59.679Z,16.50
2024-05-09T20:11:33.307Z,19.13
2024-05-09T20:14:04.189Z,17.27
2024-05-09T20:16:33.888Z,18.23
2024-05-09T20:19:03.103Z,19.80
2024-05-09T20:21:32.809Z,22.63
2024-05-09T20:24:01.112Z,17.03
2024-05-09T20:26:31.208Z,18.73
2024-05-09T20:28:59.993Z,18.67
2024-05-09T20:31:32.882Z,18.08
2024-05-09T20:34:02.047Z,18.07
2024-05-09T20:36:32.193Z,19.98
2024-05-09T20:39:01.030Z,19.48
2024-05-09T20:41:32.035Z,16.35
2024-05-09T20:44:04.048Z,18.88
2024-05-09T20:46:36.825Z,22.08
2024-05-09T20:49:06.180Z,17.85
2024-05-09T20:51:36.226Z,18.27
2024-05-09T20:54:05.054Z,18.42
2024-05-09T20:56:35.175Z,18.58
2024-05-09T20:59:04.066Z,18.45
2024-05-09T21:01:37.080Z,19.27
2024-05-09T21:04:06.322Z,19.20
2024-05-09T21:06:36.206Z,21.88
2024-05-09T21:09:05.055Z,21.97
2024-05-09T21:11:35.263Z,20.80
2024-05-09T21:14:04.066Z,21.83
2024-05-09T21:16:38.410Z,23.73
2024-05-09T21:19:06.112Z,25.23
2024-05-09T21:21:41.904Z,21.27
2024-05-09T21:24:10.070Z,25.27
2024-05-09T21:26:40.224Z,21.88
2024-05-09T21:29:08.226Z,21.25
2024-05-09T21:31:41.114Z,23.75
2024-05-09T21:34:09.467Z,24.58
2024-05-09T21:36:40.127Z,31.65
2024-05-09T21:39:09.244Z,28.17
2024-05-09T21:41:39.275Z,26.80
2024-05-09T21:44:08.098Z,25.50
2024-05-09T21:46:40.913Z,23.40
2024-05-09T21:49:09.303Z,28.65
2024-05-09T21:51:40.138Z,28.42
2024-05-09T21:54:08.253Z,29.92
2024-05-09T21:56:39.125Z,28.75
2024-05-09T21:59:07.263Z,29.50
2024-05-09T22:01:40.236Z,32.58
2024-05-09T22:04:08.335Z,37.58
2024-05-09T22:06:39.135Z,36.47
2024-05-09T22:09:07.289Z,33.53
2024-05-09T22:11:38.193Z,25.87
2024-05-09T22:14:06.282Z,26.55
2024-05-09T22:16:36.247Z,33.45
2024-05-09T22:19:07.684Z,32.83
2024-05-09T22:21:38.112Z,34.88
2024-05-09T22:24:07.163Z,36.42
2024-05-09T22:26:39.958Z,38.78
2024-05-09T22:29:09.169Z,38.70
2024-05-09T22:31:38.956Z,38.85
2024-05-09T22:34:11.272Z,46.70
2024-05-09T22:36:40.959Z,41.15
2024-05-09T22:39:10.179Z,45.63
2024-05-09T22:41:40.020Z,43.40
2024-05-09T22:44:09.197Z,42.13
2024-05-09T22:46:39.012Z,42.45
2024-05-09T22:49:11.490Z,49.28
2024-05-09T22:51:41.989Z,43.05
2024-05-09T22:54:10.709Z,43.75
2024-05-09T22:56:41.207Z,46.53
2024-05-09T22:59:09.795Z,45.83
2024-05-09T23:01:40.273Z,48.75
2024-05-09T23:04:11.446Z,42.20
2024-05-09T23:06:44.036Z,42.93
2024-05-09T23:09:13.226Z,41.92
2024-05-09T23:11:45.743Z,41.83
2024-05-09T23:14:14.225Z,44.38
2024-05-09T23:16:45.059Z,39.70
2024-05-09T23:19:16.378Z,39.17
2024-05-09T23:21:46.289Z,44.50
2024-05-09T23:24:14.743Z,39.40
2024-05-09T23:26:46.248Z,39.08
2024-05-09T23:29:14.789Z,41.83
2024-05-09T23:31:45.273Z,38.72
2024-05-09T23:34:17.385Z,36.40
2024-05-09T23:36:48.306Z,39.95
2024-05-09T23:39:18.514Z,40.17
2024-05-09T23:41:49.266Z,40.60
2024-05-09T23:44:17.774Z,40.17
2024-05-09T23:46:48.097Z,43.40
2024-05-09T23:49:20.294Z,43.17
2024-05-09T23:51:50.086Z,41.72
2024-05-09T23:54:19.281Z,45.20
2024-05-09T23:56:49.066Z,36.63
2024-05-09T23:59:19.289Z,37.50
